createdAt,value
2024-01-25T04:35:35.758Z,10.00
2024-01-25T04:38:04.073Z,8.60
2024-01-25T04:40:32.165Z,9.20
2024-01-25T04:43:00.422Z,10.85
2024-01-25T04:45:28.297Z,9.43
2024-01-25T04:47:57.362Z,9.60
2024-01-25T04:50:25.630Z,8.13
2024-01-25T04:52:53.719Z,7.40
2024-01-25T04:55:21.683Z,6.63
2024-01-25T04:57:54.743Z,7.30
2024-01-25T05:00:23.949Z,6.82
2024-01-25T05:02:51.916Z,6.95
2024-01-25T05:05:19.666Z,7.78
2024-01-25T05:07:47.740Z,6.47
2024-01-25T05:10:16.009Z,10.25
2024-01-25T05:12:43.850Z,16.52
2024-01-25T05:15:11.866Z,12.05
2024-01-25T05:17:39.803Z,12.05
2024-01-25T05:20:08.450Z,11.00
2024-01-25T05:22:41.537Z,11.32
2024-01-25T05:25:09.884Z,17.52
2024-01-25T05:27:37.824Z,54.78
2024-01-25T05:30:06.478Z,44.45
2024-01-25T05:32:34.429Z,39.63
2024-01-25T05:35:03.418Z,52.65
2024-01-25T05:37:31.555Z,56.72
2024-01-25T05:39:59.448Z,66.88
2024-01-25T05:42:27.335Z,68.63
2024-01-25T05:44:56.059Z,59.35
2024-01-25T05:47:25.049Z,56.50
2024-01-25T05:49:53.188Z,50.70
2024-01-25T05:52:22.895Z,48.80
2024-01-25T05:54:51.225Z,41.40
2024-01-25T05:57:20.123Z,41.35
2024-01-25T05:59:49.029Z,37.85
2024-01-25T06:02:17.103Z,43.83
2024-01-25T06:04:45.300Z,42.42
2024-01-25T06:07:13.528Z,53.38
2024-01-25T06:09:41.982Z,49.72
2024-01-25T06:12:09.926Z,106.25
2024-01-25T06:14:37.884Z,91.70
2024-01-25T06:17:05.772Z,84.65
2024-01-25T06:19:34.702Z,74.28
2024-01-25T06:22:02.537Z,26.85
2024-01-25T06:24:30.267Z,21.83
2024-01-25T06:26:58.423Z,25.15
2024-01-25T06:29:26.305Z,26.63
2024-01-25T06:31:54.568Z,23.92
2024-01-25T06:34:22.353Z,22.23
2024-01-25T06:36:50.625Z,21.40
2024-01-25T06:39:18.628Z,18.33
2024-01-25T06:41:46.454Z,20.48
2024-01-25T06:44:14.348Z,16.48
2024-01-25T06:46:42.200Z,14.07
2024-01-25T06:49:14.020Z,17.50
2024-01-25T06:51:42.975Z,16.02
2024-01-25T06:54:11.141Z,15.40
2024-01-25T06:56:40.156Z,16.30
2024-01-25T06:59:07.893Z,13.63
2024-01-25T07:01:36.464Z,12.68
2024-01-25T07:04:05.196Z,14.70
2024-01-25T07:06:33.625Z,12.98
2024-01-25T07:09:01.690Z,15.00
2024-01-25T07:11:30.523Z,14.35
2024-01-25T07:13:58.273Z,11.93
2024-01-25T07:16:26.351Z,13.68
2024-01-25T07:18:54.211Z,12.70
2024-01-25T07:21:22.212Z,11.70
2024-01-25T07:23:49.919Z,12.35
2024-01-25T07:26:19.341Z,10.43
2024-01-25T07:28:47.735Z,12.85
2024-01-25T07:31:15.801Z,11.57
2024-01-25T07:33:43.810Z,9.88
2024-01-25T07:36:11.677Z,10.85
2024-01-25T07:38:39.460Z,11.63
2024-01-25T07:41:08.571Z,11.02
2024-01-25T07:43:36.400Z,11.20
2024-01-25T07:46:04.364Z,10.68
2024-01-25T07:48:32.326Z,10.60
2024-01-25T07:51:00.762Z,10.45
2024-01-25T07:53:29.421Z,10.13
2024-01-25T07:55:57.184Z,10.20
2024-01-25T07:58:25.106Z,10.00
2024-01-25T08:00:53.439Z,10.90
2024-01-25T08:03:21.630Z,10.88
2024-01-25T08:05:51.610Z,8.25
2024-01-25T08:08:19.811Z,10.20
2024-01-25T08:10:48.393Z,10.45
2024-01-25T08:13:16.141Z,10.00
2024-01-25T08:15:43.970Z,10.02
2024-01-25T08:18:12.215Z,8.20
2024-01-25T08:20:40.317Z,10.02
2024-01-25T08:23:10.474Z,9.73
2024-01-25T08:25:38.593Z,10.85
2024-01-25T08:28:06.866Z,9.13
2024-01-25T08:30:34.969Z,8.52
2024-01-25T08:33:03.114Z,8.57
2024-01-25T08:35:34.891Z,8.00
2024-01-25T08:38:03.942Z,8.80
2024-01-25T08:40:31.626Z,9.38
2024-01-25T08:42:59.558Z,10.50
2024-01-25T08:45:27.526Z,8.35
2024-01-25T08:47:57.486Z,8.57
2024-01-25T08:50:27.704Z,10.27
2024-01-25T08:52:55.839Z,8.63
2024-01-25T08:55:23.921Z,13.10
2024-01-25T08:57:52.297Z,9.02
2024-01-25T09:00:21.639Z,8.55
2024-01-25T09:02:50.043Z,7.57
2024-01-25T09:05:18.396Z,6.75
2024-01-25T09:07:46.623Z,7.70
2024-01-25T09:10:14.425Z,8.32
2024-01-25T09:12:43.090Z,6.20
2024-01-25T09:15:12.001Z,6.30
2024-01-25T09:17:39.890Z,6.95
2024-01-25T09:20:09.124Z,7.78
2024-01-25T09:22:37.261Z,7.78
2024-01-25T09:25:07.709Z,6.72
2024-01-25T09:27:39.986Z,7.65
2024-01-25T09:30:09.459Z,7.55
2024-01-25T09:32:38.085Z,7.68
2024-01-25T09:35:07.307Z,6.53
2024-01-25T09:37:36.438Z,6.00
2024-01-25T09:40:05.427Z,7.40
2024-01-25T09:42:34.034Z,6.28
2024-01-25T09:45:02.238Z,6.10
2024-01-25T09:47:31.642Z,6.53
2024-01-25T09:50:01.921Z,5.40
2024-01-25T09:52:32.419Z,6.30
2024-01-25T09:55:02.047Z,8.52
2024-01-25T09:57:31.906Z,7.80
2024-01-25T10:00:00.049Z,7.72
2024-01-25T10:02:27.990Z,7.55
2024-01-25T10:04:58.205Z,6.65
2024-01-25T10:07:43.275Z,6.75
2024-01-25T10:10:12.523Z,10.25
2024-01-25T10:12:42.709Z,4.40
2024-01-25T10:15:11.830Z,7.28
2024-01-25T10:17:58.644Z,5.95
2024-01-25T10:20:31.551Z,6.15
2024-01-25T10:23:01.397Z,5.95
2024-01-25T10:25:30.310Z,5.60
2024-01-25T10:27:59.340Z,6.70
2024-01-25T10:30:30.415Z,6.88
2024-01-25T10:33:01.075Z,5.00
2024-01-25T10:35:30.688Z,5.38
2024-01-25T10:37:59.591Z,4.30
2024-01-25T10:40:29.528Z,7.10
2024-01-25T10:42:57.758Z,5.72
2024-01-25T10:45:25.887Z,5.93
2024-01-25T10:47:54.013Z,5.75
2024-01-25T10:50:22.349Z,5.53
2024-01-25T10:52:50.626Z,4.75
2024-01-25T10:55:18.722Z,4.65
2024-01-25T10:57:49.302Z,5.32
2024-01-25T11:00:18.033Z,4.82
2024-01-25T11:02:51.188Z,5.60
2024-01-25T11:05:22.335Z,4.85
2024-01-25T11:07:52.237Z,5.20
2024-01-25T11:10:22.584Z,7.45
2024-01-25T11:12:56.940Z,4.80
2024-01-25T11:15:33.422Z,5.00
2024-01-25T11:18:03.686Z,4.50
2024-01-25T11:20:33.433Z,3.35
2024-01-25T11:23:06.801Z,5.18
2024-01-25T11:25:36.387Z,4.85
2024-01-25T11:28:09.091Z,7.72
2024-01-25T11:30:39.536Z,6.90
2024-01-25T11:33:11.303Z,4.38
2024-01-25T11:35:39.858Z,4.70
2024-01-25T11:38:09.370Z,3.55
2024-01-25T11:40:38.139Z,5.07
2024-01-25T11:43:12.438Z,3.92
2024-01-25T11:45:44.833Z,5.03
2024-01-25T11:50:42.135Z,3.53
2024-01-25T11:53:11.180Z,4.47
2024-01-25T11:55:39.513Z,4.05
2024-01-25T11:58:08.488Z,4.43
2024-01-25T12:00:37.812Z,4.72
2024-01-25T12:03:06.359Z,3.45
2024-01-25T12:05:34.342Z,4.50
2024-01-25T12:08:03.238Z,5.35
2024-01-25T12:10:31.393Z,5.75
2024-01-25T12:12:59.282Z,3.72
2024-01-25T12:15:27.044Z,5.47
2024-01-25T12:17:55.671Z,4.70
2024-01-25T12:20:23.924Z,4.57
2024-01-25T12:22:51.845Z,3.67
2024-01-25T12:25:19.737Z,3.97
2024-01-25T12:27:51.246Z,4.10
2024-01-25T12:30:19.193Z,3.00
2024-01-25T12:32:50.710Z,3.80
2024-01-25T12:35:19.454Z,3.83
2024-01-25T12:37:47.726Z,3.22
2024-01-25T12:40:15.754Z,3.88
2024-01-25T12:42:44.274Z,2.80
2024-01-25T12:45:12.854Z,3.97
2024-01-25T12:47:41.939Z,4.32
2024-01-25T12:50:10.935Z,4.72
2024-01-25T12:52:39.412Z,3.97
2024-01-25T12:55:07.817Z,5.03
2024-01-25T12:57:35.926Z,4.53
2024-01-25T13:00:05.664Z,4.35
2024-01-25T13:02:33.485Z,3.38
2024-01-25T13:05:01.463Z,4.57
2024-01-25T13:07:30.081Z,5.45
2024-01-25T13:10:00.809Z,5.38
2024-01-25T13:12:28.677Z,5.78
2024-01-25T13:14:56.462Z,7.72
2024-01-25T13:17:25.558Z,3.65
2024-01-25T13:19:53.566Z,5.65
2024-01-25T13:22:25.766Z,3.85
2024-01-25T13:24:53.553Z,6.40
2024-01-25T13:27:21.490Z,3.60
2024-01-25T13:29:49.292Z,7.88
2024-01-25T13:32:17.120Z,5.05
2024-01-25T13:34:45.002Z,4.50
2024-01-25T13:37:13.320Z,4.68
2024-01-25T13:39:41.072Z,3.95
2024-01-25T13:42:08.813Z,3.10
2024-01-25T13:44:36.779Z,3.65
2024-01-25T13:47:04.819Z,4.32
2024-01-25T13:49:33.039Z,3.55
2024-01-25T13:52:03.155Z,3.70
2024-01-25T13:54:31.432Z,5.88
2024-01-25T13:56:59.380Z,3.45
2024-01-25T13:59:27.469Z,5.47
2024-01-25T14:01:56.416Z,4.38
2024-01-25T14:04:24.486Z,4.35
2024-01-25T14:06:52.734Z,3.95
2024-01-25T14:09:21.200Z,5.22
2024-01-25T14:11:49.325Z,3.17
2024-01-25T14:14:18.337Z,3.78
2024-01-25T14:16:46.246Z,3.88
2024-01-25T14:19:14.594Z,2.95
2024-01-25T14:21:42.534Z,3.97
2024-01-25T14:24:10.322Z,3.63
2024-01-25T14:26:38.252Z,3.55
2024-01-25T14:29:06.083Z,3.70
2024-01-25T14:31:33.902Z,4.32
2024-01-25T14:34:02.454Z,3.95
2024-01-25T14:36:30.496Z,3.58
2024-01-25T14:38:58.249Z,3.55
2024-01-25T14:41:26.195Z,4.68
2024-01-25T14:43:54.054Z,3.40
2024-01-25T14:46:21.768Z,2.60
2024-01-25T14:48:49.640Z,4.90
2024-01-25T14:51:17.823Z,2.33
2024-01-25T14:53:45.592Z,3.20
2024-01-25T14:56:14.020Z,3.20
2024-01-25T14:58:42.233Z,4.13
2024-01-25T15:03:42.575Z,4.63
2024-01-25T15:06:10.384Z,4.13
2024-01-25T15:08:38.190Z,4.05
2024-01-25T15:11:06.423Z,4.32
2024-01-25T15:13:34.302Z,3.97
2024-01-25T15:16:02.406Z,4.80
2024-01-25T15:18:30.356Z,4.35
2024-01-25T15:20:58.629Z,4.22
2024-01-25T15:23:26.419Z,3.75
2024-01-25T15:25:54.773Z,3.67
2024-01-25T15:28:22.618Z,3.80
2024-01-25T15:30:50.503Z,4.03
2024-01-25T15:33:18.591Z,4.20
2024-01-25T15:35:46.481Z,3.83
2024-01-25T15:38:16.884Z,4.50
2024-01-25T15:40:44.845Z,4.18
2024-01-25T15:43:12.770Z,3.92
2024-01-25T15:45:40.723Z,5.55
2024-01-25T15:48:08.566Z,4.47
2024-01-25T15:50:36.593Z,3.05
2024-01-25T15:53:04.524Z,3.97
2024-01-25T15:55:32.394Z,3.50
2024-01-25T15:58:00.337Z,3.60
2024-01-25T16:00:28.355Z,4.20
2024-01-25T16:02:58.144Z,4.75
2024-01-25T16:05:26.830Z,4.88
2024-01-25T16:07:54.561Z,3.83
2024-01-25T16:10:22.519Z,5.50
2024-01-25T16:12:51.204Z,3.28
2024-01-25T16:15:19.718Z,3.95
2024-01-25T16:17:47.667Z,3.60
2024-01-25T16:20:16.694Z,4.47
2024-01-25T16:22:44.799Z,4.28
2024-01-25T16:25:12.892Z,3.78
2024-01-25T16:27:40.751Z,4.60
2024-01-25T16:30:09.151Z,4.25
2024-01-25T16:32:37.167Z,4.07
2024-01-25T16:35:05.506Z,3.90
2024-01-25T16:37:33.256Z,2.42
2024-01-25T16:40:01.301Z,4.95
2024-01-25T16:42:29.557Z,3.88
2024-01-25T16:44:57.521Z,4.63
2024-01-25T16:47:25.286Z,3.10
2024-01-25T16:49:53.150Z,3.95
2024-01-25T16:52:20.949Z,4.13
2024-01-25T16:54:48.862Z,4.47
2024-01-25T16:57:16.667Z,4.65
2024-01-25T16:59:44.640Z,3.83
2024-01-25T17:02:12.496Z,3.55
2024-01-25T17:04:40.492Z,3.42
2024-01-25T17:07:08.537Z,6.28
2024-01-25T17:09:36.460Z,2.80
2024-01-25T17:12:04.448Z,5.25
2024-01-25T17:14:32.184Z,4.20
2024-01-25T17:17:00.262Z,3.65
2024-01-25T17:19:28.936Z,4.20
2024-01-25T17:21:56.927Z,3.97
2024-01-25T17:24:24.972Z,3.35
2024-01-25T17:26:52.879Z,4.13
2024-01-25T17:29:20.712Z,4.13
2024-01-25T17:31:49.445Z,4.03
2024-01-25T17:34:17.758Z,3.60
2024-01-25T17:36:45.658Z,4.57
2024-01-25T17:39:14.009Z,4.38
2024-01-25T17:41:42.052Z,4.57
2024-01-25T17:44:09.955Z,4.47
2024-01-25T17:46:37.802Z,4.28
2024-01-25T17:49:05.971Z,4.50
2024-01-25T17:51:37.611Z,4.68
2024-01-25T17:54:05.649Z,5.85
2024-01-25T17:56:33.347Z,5.53
2024-01-25T17:59:03.268Z,5.20
2024-01-25T18:01:31.238Z,3.53
2024-01-25T18:03:59.523Z,4.43
2024-01-25T18:06:27.418Z,3.17
2024-01-25T18:08:55.970Z,2.88
2024-01-25T18:11:23.835Z,4.20
2024-01-25T18:13:51.625Z,3.38
2024-01-25T18:16:19.427Z,4.78
2024-01-25T18:18:47.299Z,3.80
2024-01-25T18:21:15.390Z,5.30
2024-01-25T18:23:43.209Z,3.88
2024-01-25T18:26:11.206Z,3.90
2024-01-25T18:28:39.066Z,4.88
2024-01-25T18:31:07.052Z,7.80
2024-01-25T18:33:38.419Z,4.07
2024-01-25T18:36:09.947Z,6.05
2024-01-25T18:38:38.574Z,5.82
2024-01-25T18:41:10.967Z,3.28
2024-01-25T18:43:39.135Z,4.57
2024-01-25T18:46:08.177Z,3.38
2024-01-25T18:48:36.401Z,3.70
2024-01-25T18:51:08.139Z,4.30
2024-01-25T18:56:04.647Z,3.22
2024-01-25T18:58:34.184Z,3.25
2024-01-25T19:01:03.266Z,2.53
2024-01-25T19:03:32.053Z,4.65
2024-01-25T19:06:01.126Z,3.85
2024-01-25T19:08:29.453Z,5.35
2024-01-25T19:10:57.466Z,3.80
2024-01-25T19:13:25.675Z,4.38
2024-01-25T19:15:53.822Z,3.45
2024-01-25T19:18:26.992Z,3.92
